Time;durP1;ratioP1;P1;durP2;ratioP2;P2;SDS_P1;SDS_P2;PMS_P1;PMS_P2;Temp;Humidity;BMP_temperature;BMP_pressure;BME280_temperature;BME280_humidity;BME280_pressure;Samples;Min_cycle;Max_cycle;Signal;HPM_P1;HPM_P2
2022/02/03 00:01:21;;;;;;;;;;;24.30;48.90;;;;;;1489546;78;1098;-71
2022/02/03 00:03:23;;;;;;;;;;;24.30;48.90;;;;;;1485474;78;1643;-69
2022/02/03 00:05:33;;;;;;;;;;;24.30;48.90;;;;;;1480094;78;1551;-70
2022/02/03 00:07:38;;;;;;;;;;;24.30;48.90;;;;;;1486335;78;1235;-68
2022/02/03 00:10:07;;;;;;;;;;;24.30;48.90;;;;;;1484534;78;1427;-71
2022/02/03 00:25:32;;;;;;;;;;;24.20;48.90;;;;;;1461506;80;1016;-71
2022/02/03 00:28:05;;;;;;;;;;;24.30;49.10;;;;;;1488332;78;1684;-73
2022/02/03 00:32:10;;;;;;;;;;;24.20;48.90;;;;;;1498966;78;856;-72
2022/02/03 00:34:15;;;;;;;;;;;24.30;49.10;;;;;;1484818;78;1623;-72
2022/02/03 00:36:19;;;;;;;;;;;24.30;49.10;;;;;;1484180;78;1524;-72
2022/02/03 00:38:24;;;;;;;;;;;24.30;49.20;;;;;;1454234;80;1936;-74
2022/02/03 00:49:59;;;;;;;;;;;24.20;49.00;;;;;;1486796;78;1674;-73
2022/02/03 00:51:53;;;;;;;;;;;24.30;49.20;;;;;;1474751;78;1647;-72
2022/02/03 00:53:56;;;;;;;;;;;24.20;49.10;;;;;;1486857;78;1122;-72
2022/02/03 00:56:00;;;;;;;;;;;24.20;49.10;;;;;;1486126;78;719;-75
2022/02/03 00:58:02;;;;;;;;;;;24.30;49.20;;;;;;1486388;78;1908;-72
2022/02/03 01:00:05;;;;;;;;;;;24.30;49.20;;;;;;1487749;79;825;-73
2022/02/03 01:02:09;;;;;;;;;;;24.30;49.30;;;;;;1497867;78;1916;-73
2022/02/03 01:04:12;;;;;;;;;;;24.30;49.30;;;;;;1486715;78;1161;-75
2022/02/03 01:06:15;;;;;;;;;;;24.30;49.30;;;;;;1486655;78;723;-73
2022/02/03 01:08:20;;;;;;;;;;;24.30;49.40;;;;;;1491928;78;752;-72
2022/02/03 01:10:24;;;;;;;;;;;24.30;49.30;;;;;;1486643;79;1677;-72
2022/02/03 01:12:34;;;;;;;;;;;24.30;49.30;;;;;;1486769;78;1119;-72
2022/02/03 01:14:43;;;;;;;;;;;24.30;49.30;;;;;;1484817;78;1193;-72
2022/02/03 01:21:30;;;;;;;;;;;24.30;49.20;;;;;;1480043;78;1609;-72
2022/02/03 01:37:13;;;;;;;;;;;24.20;49.20;;;;;;1485515;79;1913;-72
2022/02/03 01:43:44;;;;;;;;;;;24.30;49.30;;;;;;1494691;78;1200;-75
2022/02/03 01:47:56;;;;;;;;;;;24.30;49.30;;;;;;1492552;78;862;-73
2022/02/03 01:51:57;;;;;;;;;;;24.30;49.20;;;;;;1492345;78;875;-73
2022/02/03 01:53:59;;;;;;;;;;;24.20;49.20;;;;;;1497373;78;1090;-73
2022/02/03 01:56:02;;;;;;;;;;;24.20;49.10;;;;;;1487813;78;746;-72
2022/02/03 01:58:05;;;;;;;;;;;24.20;49.20;;;;;;1495342;78;1935;-73
2022/02/03 02:00:08;;;;;;;;;;;24.20;49.10;;;;;;1490874;78;658;-73
2022/02/03 02:02:10;;;;;;;;;;;24.20;49.20;;;;;;1492486;78;769;-76
2022/02/03 02:04:30;;;;;;;;;;;24.20;49.10;;;;;;1492106;78;1157;-76
2022/02/03 02:06:50;;;;;;;;;;;24.20;49.10;;;;;;1484452;78;841;-73
2022/02/03 02:08:57;;;;;;;;;;;24.20;49.10;;;;;;1486738;78;786;-72
2022/02/03 02:11:17;;;;;;;;;;;24.20;49.10;;;;;;1476084;78;1844;-74
2022/02/03 02:39:21;;;;;;;;;;;24.20;49.20;;;;;;1485730;78;828;-73
2022/02/03 02:43:28;;;;;;;;;;;24.20;49.30;;;;;;1486165;78;1173;-76
2022/02/03 02:45:47;;;;;;;;;;;24.20;49.40;;;;;;1485336;78;1418;-72
2022/02/03 02:48:08;;;;;;;;;;;24.20;49.40;;;;;;1489557;78;754;-72
2022/02/03 02:50:20;;;;;;;;;;;24.20;49.20;;;;;;1487858;78;787;-72
2022/02/03 02:52:27;;;;;;;;;;;24.20;49.30;;;;;;1485179;78;1486;-72
2022/02/03 02:54:44;;;;;;;;;;;24.20;49.30;;;;;;1493687;78;1597;-74
2022/02/03 03:01:59;;;;;;;;;;;24.20;49.40;;;;;;1491499;78;1647;-74
2022/02/03 03:29:06;;;;;;;;;;;24.20;49.20;;;;;;1497321;78;1638;-71
2022/02/03 03:35:39;;;;;;;;;;;24.20;49.40;;;;;;1487287;78;956;-73
2022/02/03 03:37:44;;;;;;;;;;;24.10;49.30;;;;;;1499147;78;1919;-74
2022/02/03 03:39:44;;;;;;;;;;;24.20;49.30;;;;;;1483904;78;1481;-74
2022/02/03 03:41:45;;;;;;;;;;;24.20;49.40;;;;;;1472948;78;1625;-73
2022/02/03 03:44:05;;;;;;;;;;;24.20;49.40;;;;;;1496099;78;1161;-72
2022/02/03 03:46:18;;;;;;;;;;;24.20;49.40;;;;;;1486116;78;1145;-71
2022/02/03 03:48:20;;;;;;;;;;;24.20;49.40;;;;;;1490975;78;1870;-73
2022/02/03 03:50:22;;;;;;;;;;;24.20;49.30;;;;;;1493731;78;749;-71
2022/02/03 03:52:27;;;;;;;;;;;24.30;49.40;;;;;;1462423;80;726;-71
2022/02/03 03:54:50;;;;;;;;;;;24.30;49.40;;;;;;1455579;82;1716;-68
2022/02/03 03:57:04;;;;;;;;;;;24.30;49.40;;;;;;1417384;81;1710;-72
2022/02/03 04:37:23;;;;;;;;;;;24.60;49.40;;;;;;1469385;79;819;-70
2022/02/03 04:42:36;;;;;;;;;;;24.50;49.30;;;;;;1473257;79;856;-70
2022/02/03 04:51:16;;;;;;;;;;;24.50;49.20;;;;;;1468809;79;1671;-70
2022/02/03 04:55:51;;;;;;;;;;;24.50;49.10;;;;;;1476034;79;863;-71
2022/02/03 05:06:55;;;;;;;;;;;24.70;49.20;;;;;;1479845;79;869;-71
2022/02/03 05:09:20;;;;;;;;;;;24.60;49.10;;;;;;1470148;79;1812;-71
2022/02/03 05:11:48;;;;;;;;;;;24.60;49.10;;;;;;1470374;79;1535;-71
2022/02/03 05:16:33;;;;;;;;;;;24.60;49.20;;;;;;1475050;79;1661;-70
2022/02/03 05:42:42;;;;;;;;;;;24.80;49.00;;;;;;1469462;79;1640;-71
2022/02/03 05:47:22;;;;;;;;;;;24.80;49.30;;;;;;1472189;79;873;-71
2022/02/03 05:49:02;;;;;;;;;;;24.70;49.30;;;;;;1455199;79;1429;-72
2022/02/03 06:04:54;;;;;;;;;;;24.60;48.90;;;;;;1477522;79;870;-71
2022/02/03 06:13:54;;;;;;;;;;;24.70;49.40;;;;;;1459501;79;1668;-69
2022/02/03 06:16:08;;;;;;;;;;;24.60;49.20;;;;;;1462860;79;1486;-73
2022/02/03 06:22:44;;;;;;;;;;;24.70;49.50;;;;;;1470139;79;1683;-69
2022/02/03 06:27:24;;;;;;;;;;;24.70;49.40;;;;;;1470329;79;1629;-69
2022/02/03 06:29:14;;;;;;;;;;;24.70;49.10;;;;;;1471027;79;1644;-70
2022/02/03 06:31:15;;;;;;;;;;;24.70;48.60;;;;;;1471074;79;761;-72
2022/02/03 06:33:17;;;;;;;;;;;24.60;48.20;;;;;;1471382;79;1142;-72
2022/02/03 06:35:19;;;;;;;;;;;24.60;47.80;;;;;;1470618;79;701;-72
2022/02/03 06:37:21;;;;;;;;;;;24.50;47.60;;;;;;1477580;79;672;-72
2022/02/03 06:39:28;;;;;;;;;;;24.50;47.40;;;;;;1481765;79;1932;-72
2022/02/03 06:41:30;;;;;;;;;;;24.50;47.20;;;;;;1467418;79;1446;-72
2022/02/03 06:43:32;;;;;;;;;;;24.40;46.90;;;;;;1469704;79;1159;-72
2022/02/03 06:45:43;;;;;;;;;;;24.30;46.70;;;;;;1469916;79;679;-71
2022/02/03 06:47:55;;;;;;;;;;;24.30;46.60;;;;;;1466876;79;1690;-71
2022/02/03 06:52:05;;;;;;;;;;;24.20;46.10;;;;;;1475762;79;746;-72
2022/02/03 06:54:08;;;;;;;;;;;24.10;46.00;;;;;;1473727;79;1757;-71
2022/02/03 06:56:14;;;;;;;;;;;24.20;45.90;;;;;;1474914;79;1561;-72
2022/02/03 06:58:22;;;;;;;;;;;24.00;45.60;;;;;;1473710;79;1927;-71
2022/02/03 07:00:26;;;;;;;;;;;24.00;45.50;;;;;;1472782;79;1698;-72
2022/02/03 07:02:28;;;;;;;;;;;24.00;45.30;;;;;;1467713;79;1656;-72
2022/02/03 07:04:36;;;;;;;;;;;24.00;45.10;;;;;;1471064;79;1778;-71
2022/02/03 07:06:33;;;;;;;;;;;23.90;45.00;;;;;;1469837;79;1639;-72
2022/02/03 07:08:36;;;;;;;;;;;23.90;44.80;;;;;;1469989;79;663;-73
2022/02/03 07:10:39;;;;;;;;;;;23.80;44.60;;;;;;1470614;79;771;-71
2022/02/03 07:12:41;;;;;;;;;;;23.80;44.50;;;;;;1458881;79;1182;-72
2022/02/03 07:14:42;;;;;;;;;;;23.70;44.30;;;;;;1470945;79;736;-73
2022/02/03 07:16:48;;;;;;;;;;;23.70;44.00;;;;;;1471592;79;742;-72
2022/02/03 07:18:48;;;;;;;;;;;23.70;43.90;;;;;;1471997;79;1929;-72
2022/02/03 07:20:51;;;;;;;;;;;23.70;43.70;;;;;;1475021;79;878;-72
2022/02/03 07:22:52;;;;;;;;;;;23.60;43.50;;;;;;1479915;79;1178;-72
2022/02/03 07:24:54;;;;;;;;;;;23.50;43.30;;;;;;1471196;79;777;-72
2022/02/03 07:26:56;;;;;;;;;;;23.60;43.10;;;;;;1475606;79;792;-72
2022/02/03 07:28:58;;;;;;;;;;;23.50;43.00;;;;;;1477341;79;844;-72
2022/02/03 07:31:00;;;;;;;;;;;23.50;42.90;;;;;;1471992;79;806;-73
2022/02/03 07:33:04;;;;;;;;;;;23.50;42.80;;;;;;1471579;79;1174;-72
2022/02/03 07:35:05;;;;;;;;;;;23.40;42.60;;;;;;1479043;79;1644;-73
2022/02/03 07:37:07;;;;;;;;;;;23.40;42.60;;;;;;1471228;79;724;-73
2022/02/03 07:39:09;;;;;;;;;;;23.30;42.40;;;;;;1470714;79;1947;-73
2022/02/03 07:41:11;;;;;;;;;;;23.30;42.40;;;;;;1470572;79;824;-72
2022/02/03 07:43:13;;;;;;;;;;;23.30;42.30;;;;;;1471102;79;1314;-72
2022/02/03 07:45:15;;;;;;;;;;;23.20;42.20;;;;;;1471323;79;737;-72
2022/02/03 07:47:17;;;;;;;;;;;23.20;42.10;;;;;;1472059;79;723;-71
2022/02/03 07:49:19;;;;;;;;;;;23.20;42.00;;;;;;1471861;79;801;-72
2022/02/03 07:51:22;;;;;;;;;;;23.20;42.00;;;;;;1471470;79;906;-71
2022/02/03 07:53:24;;;;;;;;;;;23.20;41.90;;;;;;1469790;79;1143;-71
2022/02/03 07:57:53;;;;;;;;;;;23.10;41.90;;;;;;1479702;78;1568;-69
2022/02/03 07:59:55;;;;;;;;;;;23.10;41.70;;;;;;1480440;78;1951;-69
2022/02/03 08:01:57;;;;;;;;;;;23.00;41.50;;;;;;1490571;78;784;-69
2022/02/03 08:04:02;;;;;;;;;;;23.10;41.50;;;;;;1481420;78;1179;-69
2022/02/03 08:06:06;;;;;;;;;;;23.00;41.30;;;;;;1483721;78;1652;-70
2022/02/03 08:08:23;;;;;;;;;;;23.00;41.30;;;;;;1495350;78;1462;-71
2022/02/03 08:10:33;;;;;;;;;;;22.90;41.30;;;;;;1478988;78;1615;-72
2022/02/03 08:12:28;;;;;;;;;;;23.00;41.30;;;;;;1480286;78;1164;-72
2022/02/03 08:14:35;;;;;;;;;;;23.00;41.20;;;;;;1480486;78;1664;-71
2022/02/03 08:16:44;;;;;;;;;;;23.00;41.10;;;;;;1485970;78;1714;-70
2022/02/03 08:18:46;;;;;;;;;;;22.80;40.90;;;;;;1480110;78;1911;-72
2022/02/03 08:20:53;;;;;;;;;;;22.80;40.90;;;;;;1479270;78;1548;-72
2022/02/03 08:23:08;;;;;;;;;;;22.80;40.90;;;;;;1490162;78;1580;-72
2022/02/03 08:27:33;;;;;;;;;;;22.70;40.80;;;;;;1484713;78;855;-71
2022/02/03 08:29:30;;;;;;;;;;;22.80;40.80;;;;;;1485032;78;1493;-71
2022/02/03 08:31:22;;;;;;;;;;;22.70;40.80;;;;;;1453679;79;1672;-71
2022/02/03 08:33:21;;;;;;;;;;;22.70;40.80;;;;;;1482792;80;1570;-71
2022/02/03 08:35:34;;;;;;;;;;;22.70;40.90;;;;;;1476807;78;1709;-72
2022/02/03 08:37:59;;;;;;;;;;;22.80;40.90;;;;;;1489519;78;1424;-71
2022/02/03 08:39:34;;;;;;;;;;;22.70;40.90;;;;;;1487956;78;1935;-72
2022/02/03 08:41:32;;;;;;;;;;;22.70;40.90;;;;;;1507402;78;1663;-72
2022/02/03 08:43:35;;;;;;;;;;;22.70;40.80;;;;;;1504194;78;1227;-72
2022/02/03 08:45:37;;;;;;;;;;;22.70;40.80;;;;;;1496441;78;749;-71
2022/02/03 08:47:38;;;;;;;;;;;22.70;40.70;;;;;;1492374;78;816;-72
2022/02/03 08:49:45;;;;;;;;;;;22.60;40.60;;;;;;1485254;78;950;-73
2022/02/03 08:51:46;;;;;;;;;;;22.60;40.60;;;;;;1485866;78;1158;-72
2022/02/03 08:53:50;;;;;;;;;;;22.70;41.30;;;;;;1482907;80;1682;-72
2022/02/03 08:58:31;;;;;;;;;;;22.70;41.90;;;;;;1482455;78;869;-74
2022/02/03 09:28:32;;;;;;;;;;;22.80;44.70;;;;;;1484663;78;1897;-72
2022/02/03 09:37:31;;;;;;;;;;;23.00;45.40;;;;;;1482247;78;859;-73
2022/02/03 09:39:27;;;;;;;;;;;23.00;45.50;;;;;;1476770;80;1947;-71
2022/02/03 09:50:53;;;;;;;;;;;22.90;46.00;;;;;;1483389;78;1662;-71
2022/02/03 09:54:51;;;;;;;;;;;23.00;46.10;;;;;;1496256;78;858;-71
2022/02/03 09:59:08;;;;;;;;;;;23.00;46.20;;;;;;1476813;78;1962;-71
2022/02/03 10:01:11;;;;;;;;;;;23.00;46.30;;;;;;1481717;78;1717;-71
2022/02/03 10:03:18;;;;;;;;;;;23.00;46.30;;;;;;1454375;80;1680;-73
2022/02/03 10:07:39;;;;;;;;;;;23.00;46.40;;;;;;1496953;78;713;-72
2022/02/03 10:09:41;;;;;;;;;;;23.00;46.40;;;;;;1510545;78;742;-71
2022/02/03 10:11:43;;;;;;;;;;;23.00;46.50;;;;;;1487974;78;795;-70
2022/02/03 10:13:46;;;;;;;;;;;23.00;46.50;;;;;;1495047;78;1167;-71
2022/02/03 10:15:48;;;;;;;;;;;23.00;46.50;;;;;;1454572;80;691;-71
2022/02/03 10:17:53;;;;;;;;;;;23.10;46.70;;;;;;1482642;78;723;-72
2022/02/03 10:20:00;;;;;;;;;;;23.00;46.60;;;;;;1463885;80;1924;-70
2022/02/03 10:22:03;;;;;;;;;;;23.00;46.60;;;;;;1460430;79;826;-70
2022/02/03 10:24:06;;;;;;;;;;;23.10;46.80;;;;;;1476739;80;1157;-71
2022/02/03 10:26:08;;;;;;;;;;;23.00;46.60;;;;;;1480632;79;747;-71
2022/02/03 10:28:13;;;;;;;;;;;23.00;46.60;;;;;;1483165;78;731;-70
2022/02/03 10:30:22;;;;;;;;;;;23.10;46.80;;;;;;1485556;78;1721;-72
2022/02/03 10:32:19;;;;;;;;;;;23.10;46.80;;;;;;1476551;78;1620;-69
2022/02/03 10:34:33;;;;;;;;;;;23.00;46.80;;;;;;1476604;80;1122;-70
2022/02/03 10:37:06;;;;;;;;;;;23.00;46.70;;;;;;1477204;79;1712;-70
2022/02/03 10:52:36;;;;;;;;;;;23.10;47.00;;;;;;1411481;83;1818;-72
2022/02/03 10:56:52;;;;;;;;;;;23.10;47.10;;;;;;1470250;80;863;-70
2022/02/03 11:00:58;;;;;;;;;;;23.10;47.10;;;;;;1496052;78;1917;-71
2022/02/03 11:07:22;;;;;;;;;;;23.20;47.10;;;;;;1503969;78;864;-70
2022/02/03 11:09:21;;;;;;;;;;;23.20;47.00;;;;;;1490659;78;1495;-70
2022/02/03 11:11:32;;;;;;;;;;;23.20;47.10;;;;;;1460065;80;1672;-70
2022/02/03 11:13:22;;;;;;;;;;;23.20;47.10;;;;;;1477773;78;1167;-72
2022/02/03 11:15:25;;;;;;;;;;;23.30;47.10;;;;;;1459116;80;803;-72
2022/02/03 11:17:27;;;;;;;;;;;23.20;47.00;;;;;;1499725;78;739;-71
2022/02/03 11:19:31;;;;;;;;;;;23.30;47.10;;;;;;1480219;79;1930;-70
2022/02/03 11:21:35;;;;;;;;;;;23.30;47.10;;;;;;1481796;78;1144;-70
2022/02/03 11:23:42;;;;;;;;;;;23.30;47.10;;;;;;1500395;78;1139;-70
2022/02/03 11:32:44;;;;;;;;;;;23.30;47.00;;;;;;1443309;80;1049;-70
2022/02/03 11:39:36;;;;;;;;;;;23.20;46.90;;;;;;1471096;78;876;-71
2022/02/03 11:48:42;;;;;;;;;;;23.30;47.10;;;;;;1449456;80;805;-70
2022/02/03 11:55:08;;;;;;;;;;;23.20;47.10;;;;;;1487337;78;810;-70
2022/02/03 11:59:42;;;;;;;;;;;23.20;47.10;;;;;;1484062;79;862;-69
2022/02/03 12:01:57;;;;;;;;;;;23.10;47.10;;;;;;1480398;79;1971;-74
2022/02/03 12:06:42;;;;;;;;;;;23.20;47.20;;;;;;1490392;79;857;-70
2022/02/03 12:13:23;;;;;;;;;;;23.20;47.30;;;;;;1489160;79;1135;-71
2022/02/03 12:17:37;;;;;;;;;;;23.30;47.40;;;;;;1500229;78;823;-69
2022/02/03 12:19:42;;;;;;;;;;;23.30;47.40;;;;;;1500776;79;1929;-69
2022/02/03 12:21:44;;;;;;;;;;;23.30;47.40;;;;;;1469566;79;1745;-71
2022/02/03 12:26:00;;;;;;;;;;;23.30;47.40;;;;;;1494226;78;876;-72
2022/02/03 12:28:19;;;;;;;;;;;23.30;47.40;;;;;;1494042;78;1622;-70
2022/02/03 12:30:42;;;;;;;;;;;23.20;47.30;;;;;;1453645;80;1687;-69
2022/02/03 12:39:09;;;;;;;;;;;23.20;47.00;;;;;;1490420;79;1895;-72
2022/02/03 12:41:10;;;;;;;;;;;23.30;47.20;;;;;;1482854;79;1927;-70
2022/02/03 12:45:26;;;;;;;;;;;23.30;47.20;;;;;;1488435;78;851;-69
2022/02/03 12:47:27;;;;;;;;;;;23.20;47.20;;;;;;1477062;80;1683;-68
2022/02/03 12:49:32;;;;;;;;;;;23.30;47.30;;;;;;1489149;79;760;-69
2022/02/03 12:51:34;;;;;;;;;;;23.30;47.30;;;;;;1489249;79;775;-73
2022/02/03 12:53:38;;;;;;;;;;;23.30;47.30;;;;;;1480982;79;1170;-70
2022/02/03 12:55:41;;;;;;;;;;;23.30;47.30;;;;;;1491440;79;740;-70
2022/02/03 12:57:42;;;;;;;;;;;23.20;47.30;;;;;;1498640;79;733;-71
2022/02/03 12:59:47;;;;;;;;;;;23.20;47.20;;;;;;1489856;79;812;-72
2022/02/03 13:01:48;;;;;;;;;;;23.20;47.30;;;;;;1480499;79;1676;-70
2022/02/03 13:03:52;;;;;;;;;;;23.20;47.30;;;;;;1494731;79;1196;-70
2022/02/03 13:05:54;;;;;;;;;;;23.20;47.30;;;;;;1486595;79;1103;-69
2022/02/03 13:07:57;;;;;;;;;;;23.10;47.30;;;;;;1479418;80;941;-70
2022/02/03 13:10:07;;;;;;;;;;;23.20;47.30;;;;;;1484015;78;751;-73
2022/02/03 13:12:16;;;;;;;;;;;23.20;47.30;;;;;;1489620;79;795;-70
2022/02/03 13:14:26;;;;;;;;;;;23.20;47.30;;;;;;1475813;79;1693;-70
2022/02/03 13:16:18;;;;;;;;;;;23.20;47.40;;;;;;1474192;79;1483;-70
2022/02/03 13:18:33;;;;;;;;;;;23.20;47.40;;;;;;1486151;79;721;-70
2022/02/03 13:20:35;;;;;;;;;;;23.20;47.40;;;;;;1484168;79;1927;-71
2022/02/03 13:26:48;;;;;;;;;;;23.20;47.50;;;;;;1465663;79;865;-69
2022/02/03 13:29:01;;;;;;;;;;;23.20;47.50;;;;;;1480333;79;765;-70
2022/02/03 13:31:17;;;;;;;;;;;23.20;47.50;;;;;;1479486;79;1478;-70
2022/02/03 13:33:17;;;;;;;;;;;23.20;47.50;;;;;;1480874;79;1175;-71
2022/02/03 13:35:27;;;;;;;;;;;23.20;47.50;;;;;;1482935;79;787;-69
2022/02/03 13:37:35;;;;;;;;;;;23.20;47.50;;;;;;1476611;79;1709;-70
2022/02/03 13:39:37;;;;;;;;;;;23.20;47.50;;;;;;1480651;79;2088;-70
2022/02/03 13:41:39;;;;;;;;;;;23.10;47.50;;;;;;1489073;78;1932;-70
2022/02/03 13:43:39;;;;;;;;;;;23.20;47.60;;;;;;1493528;79;1491;-72
2022/02/03 13:45:41;;;;;;;;;;;23.20;47.60;;;;;;1481497;79;731;-70
2022/02/03 13:47:43;;;;;;;;;;;23.20;47.60;;;;;;1486497;78;734;-71
2022/02/03 13:49:45;;;;;;;;;;;23.10;47.60;;;;;;1479594;79;732;-71
2022/02/03 13:51:48;;;;;;;;;;;23.20;47.60;;;;;;1490032;79;720;-71
2022/02/03 13:54:22;;;;;;;;;;;23.10;47.60;;;;;;1477467;79;1592;-71
2022/02/03 14:13:25;;;;;;;;;;;23.00;47.70;;;;;;1478807;79;1640;-71
2022/02/03 14:21:17;;;;;;;;;;;23.00;47.80;;;;;;1473882;78;1919;-72
2022/02/03 14:27:43;;;;;;;;;;;23.00;47.80;;;;;;1475990;79;1626;-73
2022/02/03 14:29:49;;;;;;;;;;;23.00;47.80;;;;;;1483995;78;798;-72
2022/02/03 14:31:58;;;;;;;;;;;23.00;47.80;;;;;;1476553;79;1011;-84
2022/02/03 14:33:54;;;;;;;;;;;23.10;47.90;;;;;;1474277;79;1625;-72
2022/02/03 14:36:05;;;;;;;;;;;23.00;47.50;;;;;;1476228;79;753;-72
2022/02/03 14:38:26;;;;;;;;;;;23.00;47.40;;;;;;1477513;79;1683;-72
2022/02/03 14:42:12;;;;;;;;;;;23.00;47.40;;;;;;1476241;79;1915;-73
2022/02/03 14:44:14;;;;;;;;;;;23.00;47.50;;;;;;1476115;80;1126;-72
2022/02/03 14:46:17;;;;;;;;;;;23.00;47.60;;;;;;1481177;79;683;-72
2022/02/03 14:48:19;;;;;;;;;;;23.00;47.60;;;;;;1483257;79;760;-72
2022/02/03 14:50:22;;;;;;;;;;;23.00;47.70;;;;;;1477591;79;721;-72
2022/02/03 14:52:33;;;;;;;;;;;23.00;47.70;;;;;;1474626;79;727;-73
2022/02/03 14:58:57;;;;;;;;;;;23.00;47.80;;;;;;1478881;79;1644;-73
2022/02/03 15:00:59;;;;;;;;;;;23.00;47.90;;;;;;1478330;79;1967;-73
2022/02/03 15:03:01;;;;;;;;;;;23.00;47.90;;;;;;1473015;79;1205;-73
2022/02/03 15:05:08;;;;;;;;;;;23.00;48.10;;;;;;1486247;79;700;-73
2022/02/03 15:07:09;;;;;;;;;;;23.00;48.10;;;;;;1478466;79;1624;-72
2022/02/03 15:09:35;;;;;;;;;;;23.00;48.20;;;;;;1478402;79;1811;-71
2022/02/03 15:11:40;;;;;;;;;;;23.00;48.20;;;;;;1471742;80;1140;-75
2022/02/03 15:13:35;;;;;;;;;;;23.00;48.30;;;;;;1472351;79;1170;-72
2022/02/03 15:15:33;;;;;;;;;;;23.00;48.40;;;;;;1478257;78;1444;-72
2022/02/03 15:17:36;;;;;;;;;;;23.00;48.40;;;;;;1484322;79;801;-72
2022/02/03 15:19:37;;;;;;;;;;;23.00;48.40;;;;;;1478702;79;736;-73
2022/02/03 15:21:40;;;;;;;;;;;23.00;48.50;;;;;;1482602;79;1929;-80
2022/02/03 15:23:42;;;;;;;;;;;23.00;48.50;;;;;;1478885;79;1142;-72
2022/02/03 15:25:44;;;;;;;;;;;23.00;48.50;;;;;;1475909;79;737;-73
2022/02/03 15:27:46;;;;;;;;;;;23.00;48.60;;;;;;1478033;79;718;-73
2022/02/03 15:29:50;;;;;;;;;;;23.00;48.60;;;;;;1488937;78;773;-77
2022/02/03 15:31:51;;;;;;;;;;;23.00;48.60;;;;;;1474884;79;1171;-72
2022/02/03 15:33:58;;;;;;;;;;;22.90;48.60;;;;;;1474805;79;1194;-75
2022/02/03 15:36:01;;;;;;;;;;;23.00;48.60;;;;;;1485148;79;1672;-75
2022/02/03 15:38:02;;;;;;;;;;;22.90;48.50;;;;;;1479771;79;1644;-73
2022/02/03 15:40:04;;;;;;;;;;;22.90;48.40;;;;;;1479350;79;700;-73
2022/02/03 15:42:06;;;;;;;;;;;23.00;48.20;;;;;;1477002;80;1911;-73
2022/02/03 15:44:08;;;;;;;;;;;22.90;48.10;;;;;;1484934;79;1101;-73
2022/02/03 15:46:12;;;;;;;;;;;22.90;47.80;;;;;;1476978;80;737;-73
2022/02/03 15:57:57;;;;;;;;;;;22.90;47.00;;;;;;1475282;79;1628;-72
2022/02/03 16:00:25;;;;;;;;;;;22.80;46.70;;;;;;1473259;79;1442;-73
2022/02/03 16:13:38;;;;;;;;;;;22.80;46.70;;;;;;1466843;79;1671;-70
2022/02/03 16:16:48;;;;;;;;;;;22.80;46.80;;;;;;1472413;79;1844;-71
2022/02/03 16:17:49;;;;;;;;;;;22.80;46.80;;;;;;1464381;79;984;-71
2022/02/03 16:22:02;;;;;;;;;;;22.70;46.90;;;;;;1479460;79;1942;-74
2022/02/03 16:25:06;;;;;;;;;;;22.80;46.90;;;;;;1485086;79;1165;-75
2022/02/03 16:26:42;;;;;;;;;;;22.80;46.90;;;;;;1462041;80;1116;-71
2022/02/03 16:54:00;;;;;;;;;;;22.70;47.10;;;;;;1465412;79;1249;-69
2022/02/03 16:56:01;;;;;;;;;;;22.70;47.10;;;;;;1476556;79;955;-70
2022/02/03 16:58:06;;;;;;;;;;;22.70;47.10;;;;;;1478761;79;1478;-78
2022/02/03 17:00:11;;;;;;;;;;;22.60;47.00;;;;;;1471047;80;1826;-70
2022/02/03 17:02:10;;;;;;;;;;;22.70;47.00;;;;;;1476827;78;1936;-74
2022/02/03 17:04:17;;;;;;;;;;;22.70;47.10;;;;;;1479546;79;1167;-70
2022/02/03 17:06:17;;;;;;;;;;;22.70;47.00;;;;;;1471880;79;1621;-71
2022/02/03 17:08:20;;;;;;;;;;;22.70;47.10;;;;;;1475893;79;662;-70
2022/02/03 17:10:22;;;;;;;;;;;22.70;47.10;;;;;;1453639;80;825;-73
2022/02/03 17:12:24;;;;;;;;;;;22.70;47.10;;;;;;1478743;80;934;-69
2022/02/03 17:14:28;;;;;;;;;;;22.70;47.10;;;;;;1475886;79;1102;-69
2022/02/03 17:16:29;;;;;;;;;;;22.70;47.10;;;;;;1482614;79;1736;-70
2022/02/03 17:18:31;;;;;;;;;;;22.70;47.10;;;;;;1475621;79;800;-70
2022/02/03 17:20:36;;;;;;;;;;;22.60;47.10;;;;;;1477113;79;705;-71
2022/02/03 17:22:42;;;;;;;;;;;22.60;47.10;;;;;;1475012;80;1927;-74
2022/02/03 17:24:47;;;;;;;;;;;22.70;47.10;;;;;;1478505;79;1005;-71
2022/02/03 17:26:55;;;;;;;;;;;22.70;47.10;;;;;;1469192;79;1645;-74
2022/02/03 17:28:54;;;;;;;;;;;22.60;47.10;;;;;;1466350;80;1676;-74
2022/02/03 17:31:00;;;;;;;;;;;22.60;47.10;;;;;;1475013;80;1613;-71
2022/02/03 18:03:44;;;;;;;;;;;22.60;47.30;;;;;;1475677;79;1861;-70
2022/02/03 18:06:15;;;;;;;;;;;22.70;47.30;;;;;;1473356;80;1477;-70
2022/02/03 18:17:16;;;;;;;;;;;22.60;47.30;;;;;;1475762;80;853;-69
2022/02/03 18:34:19;;;;;;;;;;;22.60;47.50;;;;;;1480303;79;1251;-74
2022/02/03 18:48:45;;;;;;;;;;;22.70;47.70;;;;;;1475902;80;756;-74
2022/02/03 18:52:16;;;;;;;;;;;22.70;47.90;;;;;;1475192;80;862;-71
2022/02/03 18:56:07;;;;;;;;;;;22.80;47.80;;;;;;1482247;79;819;-71
2022/02/03 19:00:32;;;;;;;;;;;23.00;47.80;;;;;;1479771;79;881;-70
2022/02/03 19:14:25;;;;;;;;;;;23.20;47.60;;;;;;1479848;79;1225;-71
2022/02/03 19:25:08;;;;;;;;;;;23.20;47.50;;;;;;1479848;79;774;-73
2022/02/03 20:01:49;;;;;;;;;;;23.30;47.40;;;;;;1480102;79;852;-71
2022/02/03 20:07:59;;;;;;;;;;;23.40;47.30;;;;;;1476938;79;866;-70
2022/02/03 20:10:22;;;;;;;;;;;23.40;47.30;;;;;;1474709;80;1628;-73
2022/02/03 20:12:16;;;;;;;;;;;23.30;47.40;;;;;;1473767;80;1536;-72
2022/02/03 20:14:19;;;;;;;;;;;23.40;47.40;;;;;;1475899;80;1096;-70
2022/02/03 20:16:22;;;;;;;;;;;23.30;47.50;;;;;;1468736;79;703;-76
2022/02/03 20:18:24;;;;;;;;;;;23.40;47.50;;;;;;1452625;82;732;-70
2022/02/03 20:20:26;;;;;;;;;;;23.40;47.60;;;;;;1459545;79;725;-72
2022/02/03 20:22:33;;;;;;;;;;;23.50;47.70;;;;;;1470997;81;1943;-71
2022/02/03 20:24:32;;;;;;;;;;;23.50;47.70;;;;;;1470489;81;1639;-72
2022/02/03 20:26:34;;;;;;;;;;;23.50;47.70;;;;;;1470866;81;753;-70
2022/02/03 20:28:36;;;;;;;;;;;23.50;47.80;;;;;;1468005;80;719;-72
2022/02/03 20:30:38;;;;;;;;;;;23.50;47.80;;;;;;1476026;79;803;-72
2022/02/03 20:32:40;;;;;;;;;;;23.60;47.80;;;;;;1477376;79;1176;-73
2022/02/03 20:34:41;;;;;;;;;;;23.50;47.90;;;;;;1481431;79;740;-74
2022/02/03 20:36:43;;;;;;;;;;;23.60;47.90;;;;;;1480704;79;639;-73
2022/02/03 20:38:45;;;;;;;;;;;23.60;48.00;;;;;;1477443;79;743;-72
2022/02/03 20:40:47;;;;;;;;;;;23.60;47.90;;;;;;1476179;79;874;-73
2022/02/03 20:42:49;;;;;;;;;;;23.50;48.10;;;;;;1477016;80;1962;-72
2022/02/03 20:44:51;;;;;;;;;;;23.60;48.20;;;;;;1477163;80;748;-73
2022/02/03 20:46:53;;;;;;;;;;;23.60;48.10;;;;;;1476263;80;618;-72
2022/02/03 20:48:55;;;;;;;;;;;23.60;48.10;;;;;;1478819;79;690;-72
2022/02/03 20:50:57;;;;;;;;;;;23.60;48.10;;;;;;1478763;79;801;-71
2022/02/03 20:52:59;;;;;;;;;;;23.60;48.10;;;;;;1479512;80;1166;-71
2022/02/03 20:55:00;;;;;;;;;;;23.60;48.00;;;;;;1478833;79;729;-72
2022/02/03 20:57:02;;;;;;;;;;;23.60;47.90;;;;;;1475104;80;738;-71
2022/02/03 20:59:07;;;;;;;;;;;23.60;48.00;;;;;;1477861;79;734;-72
2022/02/03 21:01:17;;;;;;;;;;;23.60;48.10;;;;;;1477085;80;1673;-71
2022/02/03 21:05:18;;;;;;;;;;;23.50;48.20;;;;;;1484022;79;1561;-72
2022/02/03 21:07:19;;;;;;;;;;;23.60;48.20;;;;;;1500151;79;720;-73
2022/02/03 21:09:21;;;;;;;;;;;23.50;48.10;;;;;;1499349;78;720;-74
2022/02/03 21:11:24;;;;;;;;;;;23.60;48.20;;;;;;1491581;79;773;-72
2022/02/03 21:13:25;;;;;;;;;;;23.60;48.20;;;;;;1499975;79;1142;-71
2022/02/03 21:15:33;;;;;;;;;;;23.60;48.20;;;;;;1502221;79;886;-71
2022/02/03 21:17:32;;;;;;;;;;;23.50;48.20;;;;;;1500305;79;1584;-71
2022/02/03 21:19:34;;;;;;;;;;;23.40;48.10;;;;;;1503856;79;710;-72
2022/02/03 21:21:36;;;;;;;;;;;23.50;48.30;;;;;;1496990;79;643;-71
2022/02/03 21:23:38;;;;;;;;;;;23.40;48.10;;;;;;1491245;79;1933;-73
2022/02/03 21:25:43;;;;;;;;;;;23.40;48.10;;;;;;1491472;79;800;-72
2022/02/03 21:27:43;;;;;;;;;;;23.40;48.20;;;;;;1503021;79;1122;-69
2022/02/03 21:29:45;;;;;;;;;;;23.40;48.10;;;;;;1496366;79;818;-71
2022/02/03 21:31:47;;;;;;;;;;;23.40;48.10;;;;;;1502695;79;741;-71
2022/02/03 21:33:54;;;;;;;;;;;23.40;48.10;;;;;;1493539;79;1189;-71
2022/02/03 21:35:56;;;;;;;;;;;23.40;48.10;;;;;;1499258;79;1637;-73
2022/02/03 21:37:56;;;;;;;;;;;23.50;48.20;;;;;;1490999;79;1638;-71
2022/02/03 21:39:58;;;;;;;;;;;23.40;48.10;;;;;;1503364;79;843;-71
2022/02/03 21:42:00;;;;;;;;;;;23.40;48.10;;;;;;1500376;79;779;-72
2022/02/03 21:44:02;;;;;;;;;;;23.50;48.30;;;;;;1494233;79;1954;-71
2022/02/03 21:46:04;;;;;;;;;;;23.50;48.20;;;;;;1500818;79;723;-71
2022/02/03 21:48:06;;;;;;;;;;;23.40;48.10;;;;;;1502667;79;768;-71
2022/02/03 21:50:08;;;;;;;;;;;23.40;48.10;;;;;;1495383;79;881;-71
2022/02/03 21:52:18;;;;;;;;;;;23.40;48.10;;;;;;1494315;79;767;-71
2022/02/03 21:54:13;;;;;;;;;;;23.40;48.10;;;;;;1500779;79;1608;-72
2022/02/03 21:56:16;;;;;;;;;;;23.40;48.10;;;;;;1503325;79;813;-72
2022/02/03 21:58:24;;;;;;;;;;;23.40;48.20;;;;;;1495093;79;799;-72
2022/02/03 22:00:22;;;;;;;;;;;23.40;48.10;;;;;;1496938;79;1645;-74